sensor_id;sensor_type;location;lat;lon;timestamp;temperature;humidity
45785;DHT22;31489;51.404;5.474;2022-12-29T00:02:03;13.70;84.60
45785;DHT22;31489;51.404;5.474;2022-12-29T00:04:28;13.70;84.90
45785;DHT22;31489;51.404;5.474;2022-12-29T00:06:54;13.70;85.20
45785;DHT22;31489;51.404;5.474;2022-12-29T00:09:20;13.60;85.30
45785;DHT22;31489;51.404;5.474;2022-12-29T00:11:45;13.60;85.60
45785;DHT22;31489;51.404;5.474;2022-12-29T00:14:12;13.60;85.80
45785;DHT22;31489;51.404;5.474;2022-12-29T00:16:56;13.50;85.90
45785;DHT22;31489;51.404;5.474;2022-12-29T00:19:22;13.50;86.00
45785;DHT22;31489;51.404;5.474;2022-12-29T00:22:12;13.50;86.30
45785;DHT22;31489;51.404;5.474;2022-12-29T00:24:56;13.50;86.40
45785;DHT22;31489;51.404;5.474;2022-12-29T00:27:40;13.50;86.50
45785;DHT22;31489;51.404;5.474;2022-12-29T00:30:24;13.50;86.50
45785;DHT22;31489;51.404;5.474;2022-12-29T00:33:19;13.50;86.60
45785;DHT22;31489;51.404;5.474;2022-12-29T00:36:25;13.50;86.90
45785;DHT22;31489;51.404;5.474;2022-12-29T00:38:58;13.50;86.80
45785;DHT22;31489;51.404;5.474;2022-12-29T00:41:43;13.50;86.70
45785;DHT22;31489;51.404;5.474;2022-12-29T00:44:27;13.50;86.60
45785;DHT22;31489;51.404;5.474;2022-12-29T00:46:53;13.50;86.70
45785;DHT22;31489;51.404;5.474;2022-12-29T00:49:18;13.50;86.70
45785;DHT22;31489;51.404;5.474;2022-12-29T00:52:03;13.50;86.70
45785;DHT22;31489;51.404;5.474;2022-12-29T00:54:31;13.50;86.60
45785;DHT22;31489;51.404;5.474;2022-12-29T00:56:57;13.50;86.70
45785;DHT22;31489;51.404;5.474;2022-12-29T00:59:23;13.50;86.70
45785;DHT22;31489;51.404;5.474;2022-12-29T01:01:50;13.50;86.60
45785;DHT22;31489;51.404;5.474;2022-12-29T01:04:16;13.50;86.60
45785;DHT22;31489;51.404;5.474;2022-12-29T01:06:42;13.50;86.60
45785;DHT22;31489;51.404;5.474;2022-12-29T01:09:08;13.50;86.60
45785;DHT22;31489;51.404;5.474;2022-12-29T01:11:53;13.60;86.60
45785;DHT22;31489;51.404;5.474;2022-12-29T01:14:19;13.50;86.40
45785;DHT22;31489;51.404;5.474;2022-12-29T01:16:45;13.60;86.10
45785;DHT22;31489;51.404;5.474;2022-12-29T01:19:12;13.60;86.00
45785;DHT22;31489;51.404;5.474;2022-12-29T01:21:37;13.60;85.90
45785;DHT22;31489;51.404;5.474;2022-12-29T01:24:03;13.60;85.80
45785;DHT22;31489;51.404;5.474;2022-12-29T01:26:29;13.60;85.60
45785;DHT22;31489;51.404;5.474;2022-12-29T01:28:54;13.50;85.50
45785;DHT22;31489;51.404;5.474;2022-12-29T01:31:20;13.60;86.00
45785;DHT22;31489;51.404;5.474;2022-12-29T01:33:46;13.60;85.40
45785;DHT22;31489;51.404;5.474;2022-12-29T01:36:14;13.60;85.40
45785;DHT22;31489;51.404;5.474;2022-12-29T01:38:40;13.60;85.00
45785;DHT22;31489;51.404;5.474;2022-12-29T01:41:08;13.60;84.80
45785;DHT22;31489;51.404;5.474;2022-12-29T01:43:44;13.60;84.70
45785;DHT22;31489;51.404;5.474;2022-12-29T01:46:32;13.60;84.30
45785;DHT22;31489;51.404;5.474;2022-12-29T01:49:05;13.60;84.10
45785;DHT22;31489;51.404;5.474;2022-12-29T01:51:46;13.70;84.40
45785;DHT22;31489;51.404;5.474;2022-12-29T01:54:25;13.70;83.80
45785;DHT22;31489;51.404;5.474;2022-12-29T01:56:53;13.70;84.20
45785;DHT22;31489;51.404;5.474;2022-12-29T01:59:24;13.70;84.10
45785;DHT22;31489;51.404;5.474;2022-12-29T02:01:52;13.70;83.50
45785;DHT22;31489;51.404;5.474;2022-12-29T02:04:18;13.80;83.70
45785;DHT22;31489;51.404;5.474;2022-12-29T02:06:57;13.70;83.70
45785;DHT22;31489;51.404;5.474;2022-12-29T02:09:24;13.80;83.10
45785;DHT22;31489;51.404;5.474;2022-12-29T02:11:51;13.80;83.80
45785;DHT22;31489;51.404;5.474;2022-12-29T02:14:17;13.80;83.20
45785;DHT22;31489;51.404;5.474;2022-12-29T02:17:22;13.80;82.80
45785;DHT22;31489;51.404;5.474;2022-12-29T02:23:10;13.90;82.80
45785;DHT22;31489;51.404;5.474;2022-12-29T02:34:39;14.00;82.50
45785;DHT22;31489;51.404;5.474;2022-12-29T02:39:34;14.00;82.70
45785;DHT22;31489;51.404;5.474;2022-12-29T02:44:54;14.00;82.50
45785;DHT22;31489;51.404;5.474;2022-12-29T02:52:34;14.00;82.30
45785;DHT22;31489;51.404;5.474;2022-12-29T02:55:01;13.90;82.50
45785;DHT22;31489;51.404;5.474;2022-12-29T03:00:07;14.00;82.50
45785;DHT22;31489;51.404;5.474;2022-12-29T03:08:39;14.00;82.40
45785;DHT22;31489;51.404;5.474;2022-12-29T03:13:39;13.90;81.80
45785;DHT22;31489;51.404;5.474;2022-12-29T03:21:51;14.00;82.10
45785;DHT22;31489;51.404;5.474;2022-12-29T03:24:38;13.90;82.40
45785;DHT22;31489;51.404;5.474;2022-12-29T03:27:07;13.90;82.30
45785;DHT22;31489;51.404;5.474;2022-12-29T03:29:38;13.90;82.40
45785;DHT22;31489;51.404;5.474;2022-12-29T03:32:06;13.80;82.60
45785;DHT22;31489;51.404;5.474;2022-12-29T03:34:33;13.80;82.60
45785;DHT22;31489;51.404;5.474;2022-12-29T03:37:12;13.80;82.60
45785;DHT22;31489;51.404;5.474;2022-12-29T03:39:41;13.70;82.40
45785;DHT22;31489;51.404;5.474;2022-12-29T03:42:10;13.70;82.80
45785;DHT22;31489;51.404;5.474;2022-12-29T03:44:40;13.60;82.60
45785;DHT22;31489;51.404;5.474;2022-12-29T03:47:07;13.50;82.70
45785;DHT22;31489;51.404;5.474;2022-12-29T03:49:33;13.50;82.70
45785;DHT22;31489;51.404;5.474;2022-12-29T03:51:58;13.40;82.50
45785;DHT22;31489;51.404;5.474;2022-12-29T03:54:24;13.40;82.60
45785;DHT22;31489;51.404;5.474;2022-12-29T03:56:50;13.40;82.60
45785;DHT22;31489;51.404;5.474;2022-12-29T03:59:15;13.40;82.60
45785;DHT22;31489;51.404;5.474;2022-12-29T04:01:41;13.30;82.70
45785;DHT22;31489;51.404;5.474;2022-12-29T04:04:07;13.30;82.70
45785;DHT22;31489;51.404;5.474;2022-12-29T04:06:32;13.30;82.90
45785;DHT22;31489;51.404;5.474;2022-12-29T04:08:58;13.30;82.70
45785;DHT22;31489;51.404;5.474;2022-12-29T04:11:24;13.20;82.70
45785;DHT22;31489;51.404;5.474;2022-12-29T04:13:49;13.20;83.00
45785;DHT22;31489;51.404;5.474;2022-12-29T04:16:15;13.20;83.00
45785;DHT22;31489;51.404;5.474;2022-12-29T04:18:41;13.10;82.80
45785;DHT22;31489;51.404;5.474;2022-12-29T04:21:06;13.10;82.80
45785;DHT22;31489;51.404;5.474;2022-12-29T04:23:35;13.10;82.70
45785;DHT22;31489;51.404;5.474;2022-12-29T04:26:01;13.00;82.50
45785;DHT22;31489;51.404;5.474;2022-12-29T04:28:28;13.00;82.50
45785;DHT22;31489;51.404;5.474;2022-12-29T04:30:54;13.00;82.70
45785;DHT22;31489;51.404;5.474;2022-12-29T04:33:20;12.90;83.00
45785;DHT22;31489;51.404;5.474;2022-12-29T04:35:46;12.90;81.90
45785;DHT22;31489;51.404;5.474;2022-12-29T04:38:12;12.80;81.80
45785;DHT22;31489;51.404;5.474;2022-12-29T04:40:39;12.80;81.90
45785;DHT22;31489;51.404;5.474;2022-12-29T04:43:06;12.70;81.50
45785;DHT22;31489;51.404;5.474;2022-12-29T04:45:31;12.70;81.60
45785;DHT22;31489;51.404;5.474;2022-12-29T04:47:57;12.80;81.80
45785;DHT22;31489;51.404;5.474;2022-12-29T04:50:22;12.70;81.40
45785;DHT22;31489;51.404;5.474;2022-12-29T04:52:48;12.70;81.40
45785;DHT22;31489;51.404;5.474;2022-12-29T04:55:14;12.70;81.70
45785;DHT22;31489;51.404;5.474;2022-12-29T04:57:40;12.70;81.40
45785;DHT22;31489;51.404;5.474;2022-12-29T05:00:06;12.70;81.30
45785;DHT22;31489;51.404;5.474;2022-12-29T05:02:32;12.70;81.20
45785;DHT22;31489;51.404;5.474;2022-12-29T05:04:57;12.70;81.50
45785;DHT22;31489;51.404;5.474;2022-12-29T05:07:23;12.70;81.50
45785;DHT22;31489;51.404;5.474;2022-12-29T05:09:50;12.70;81.50
45785;DHT22;31489;51.404;5.474;2022-12-29T05:12:15;12.70;81.60
45785;DHT22;31489;51.404;5.474;2022-12-29T05:14:41;12.70;81.80
45785;DHT22;31489;51.404;5.474;2022-12-29T05:17:07;12.70;81.80
45785;DHT22;31489;51.404;5.474;2022-12-29T05:19:33;12.60;81.90
45785;DHT22;31489;51.404;5.474;2022-12-29T05:21:58;12.60;82.00
45785;DHT22;31489;51.404;5.474;2022-12-29T05:24:24;12.60;82.10
45785;DHT22;31489;51.404;5.474;2022-12-29T05:26:49;12.60;82.20
45785;DHT22;31489;51.404;5.474;2022-12-29T05:29:15;12.70;82.30
45785;DHT22;31489;51.404;5.474;2022-12-29T05:31:40;12.60;82.20
45785;DHT22;31489;51.404;5.474;2022-12-29T05:34:06;12.60;82.10
45785;DHT22;31489;51.404;5.474;2022-12-29T05:36:32;12.70;81.90
45785;DHT22;31489;51.404;5.474;2022-12-29T05:38:57;12.70;81.80
45785;DHT22;31489;51.404;5.474;2022-12-29T05:41:23;12.70;81.90
45785;DHT22;31489;51.404;5.474;2022-12-29T05:43:49;12.70;81.50
45785;DHT22;31489;51.404;5.474;2022-12-29T05:46:14;12.80;81.80
45785;DHT22;31489;51.404;5.474;2022-12-29T05:48:40;12.80;81.80
45785;DHT22;31489;51.404;5.474;2022-12-29T05:51:05;12.80;81.50
45785;DHT22;31489;51.404;5.474;2022-12-29T05:53:31;12.80;81.60
45785;DHT22;31489;51.404;5.474;2022-12-29T05:55:56;12.90;81.30
45785;DHT22;31489;51.404;5.474;2022-12-29T05:58:22;12.90;81.40
45785;DHT22;31489;51.404;5.474;2022-12-29T06:00:48;12.90;81.10
45785;DHT22;31489;51.404;5.474;2022-12-29T06:03:13;12.90;81.20
45785;DHT22;31489;51.404;5.474;2022-12-29T06:05:39;12.90;81.60
45785;DHT22;31489;51.404;5.474;2022-12-29T06:08:05;13.00;80.70
45785;DHT22;31489;51.404;5.474;2022-12-29T06:10:30;13.00;80.40
45785;DHT22;31489;51.404;5.474;2022-12-29T06:12:56;13.00;80.60
45785;DHT22;31489;51.404;5.474;2022-12-29T06:15:22;13.00;80.30
45785;DHT22;31489;51.404;5.474;2022-12-29T06:17:47;13.10;80.00
45785;DHT22;31489;51.404;5.474;2022-12-29T06:20:13;13.10;79.80
45785;DHT22;31489;51.404;5.474;2022-12-29T06:22:38;13.10;79.50
45785;DHT22;31489;51.404;5.474;2022-12-29T06:25:04;13.20;79.60
45785;DHT22;31489;51.404;5.474;2022-12-29T06:27:31;13.20;79.20
45785;DHT22;31489;51.404;5.474;2022-12-29T06:29:56;13.20;79.20
45785;DHT22;31489;51.404;5.474;2022-12-29T06:32:22;13.30;79.20
45785;DHT22;31489;51.404;5.474;2022-12-29T06:34:48;13.30;79.10
45785;DHT22;31489;51.404;5.474;2022-12-29T06:37:14;13.30;78.60
45785;DHT22;31489;51.404;5.474;2022-12-29T06:39:40;13.30;78.80
45785;DHT22;31489;51.404;5.474;2022-12-29T06:42:05;13.30;78.90
45785;DHT22;31489;51.404;5.474;2022-12-29T06:44:31;13.40;78.50
45785;DHT22;31489;51.404;5.474;2022-12-29T06:46:56;13.40;78.30
45785;DHT22;31489;51.404;5.474;2022-12-29T06:49:22;13.40;78.10
45785;DHT22;31489;51.404;5.474;2022-12-29T06:51:48;13.40;78.00
45785;DHT22;31489;51.404;5.474;2022-12-29T06:54:13;13.50;77.90
45785;DHT22;31489;51.404;5.474;2022-12-29T06:56:39;13.50;78.10
45785;DHT22;31489;51.404;5.474;2022-12-29T06:59:05;13.50;77.60
45785;DHT22;31489;51.404;5.474;2022-12-29T07:01:31;13.50;77.20
45785;DHT22;31489;51.404;5.474;2022-12-29T07:03:56;13.50;76.80
45785;DHT22;31489;51.404;5.474;2022-12-29T07:06:23;13.60;76.70
45785;DHT22;31489;51.404;5.474;2022-12-29T07:08:48;13.50;76.30
45785;DHT22;31489;51.404;5.474;2022-12-29T07:11:14;13.50;76.20
45785;DHT22;31489;51.404;5.474;2022-12-29T07:13:40;13.50;76.10
45785;DHT22;31489;51.404;5.474;2022-12-29T07:16:07;13.50;76.10
45785;DHT22;31489;51.404;5.474;2022-12-29T07:18:32;13.50;75.00
45785;DHT22;31489;51.404;5.474;2022-12-29T07:20:58;13.50;75.30
45785;DHT22;31489;51.404;5.474;2022-12-29T07:23:24;13.50;75.20
45785;DHT22;31489;51.404;5.474;2022-12-29T07:25:49;13.50;75.20
45785;DHT22;31489;51.404;5.474;2022-12-29T07:28:15;13.50;75.00
45785;DHT22;31489;51.404;5.474;2022-12-29T07:30:41;13.50;74.30
45785;DHT22;31489;51.404;5.474;2022-12-29T07:33:06;13.50;74.60
45785;DHT22;31489;51.404;5.474;2022-12-29T07:35:34;13.50;74.30
45785;DHT22;31489;51.404;5.474;2022-12-29T07:38:00;13.50;73.90
45785;DHT22;31489;51.404;5.474;2022-12-29T07:40:25;13.50;74.20
45785;DHT22;31489;51.404;5.474;2022-12-29T07:42:54;13.50;74.30
45785;DHT22;31489;51.404;5.474;2022-12-29T07:45:19;13.60;74.40
45785;DHT22;31489;51.404;5.474;2022-12-29T07:47:48;13.60;74.20
45785;DHT22;31489;51.404;5.474;2022-12-29T07:50:14;13.60;73.90
45785;DHT22;31489;51.404;5.474;2022-12-29T07:52:40;13.50;74.10
45785;DHT22;31489;51.404;5.474;2022-12-29T07:55:06;13.60;73.90
45785;DHT22;31489;51.404;5.474;2022-12-29T07:57:32;13.60;74.00
45785;DHT22;31489;51.404;5.474;2022-12-29T07:59:58;13.60;73.70
45785;DHT22;31489;51.404;5.474;2022-12-29T08:02:26;13.60;73.30
45785;DHT22;31489;51.404;5.474;2022-12-29T08:04:52;13.60;72.50
45785;DHT22;31489;51.404;5.474;2022-12-29T08:07:18;13.60;73.10
45785;DHT22;31489;51.404;5.474;2022-12-29T08:09:43;13.60;73.10
45785;DHT22;31489;51.404;5.474;2022-12-29T08:12:10;13.70;72.60
45785;DHT22;31489;51.404;5.474;2022-12-29T08:14:36;13.60;72.30
45785;DHT22;31489;51.404;5.474;2022-12-29T08:17:02;13.70;72.50
45785;DHT22;31489;51.404;5.474;2022-12-29T08:19:27;13.70;72.40
45785;DHT22;31489;51.404;5.474;2022-12-29T08:21:53;13.70;72.30
45785;DHT22;31489;51.404;5.474;2022-12-29T08:24:19;13.70;72.10
45785;DHT22;31489;51.404;5.474;2022-12-29T08:26:45;13.70;72.30
45785;DHT22;31489;51.404;5.474;2022-12-29T08:29:10;13.70;72.40
45785;DHT22;31489;51.404;5.474;2022-12-29T08:31:36;13.70;71.70
45785;DHT22;31489;51.404;5.474;2022-12-29T08:34:03;13.70;72.00
45785;DHT22;31489;51.404;5.474;2022-12-29T08:36:29;13.80;72.10
45785;DHT22;31489;51.404;5.474;2022-12-29T08:38:56;13.80;72.10
45785;DHT22;31489;51.404;5.474;2022-12-29T08:41:22;13.80;71.80
45785;DHT22;31489;51.404;5.474;2022-12-29T08:43:49;13.80;71.50
45785;DHT22;31489;51.404;5.474;2022-12-29T08:46:15;13.80;71.50
45785;DHT22;31489;51.404;5.474;2022-12-29T08:48:41;13.80;71.70
45785;DHT22;31489;51.404;5.474;2022-12-29T08:51:07;13.80;72.10
45785;DHT22;31489;51.404;5.474;2022-12-29T08:53:33;13.80;72.30
45785;DHT22;31489;51.404;5.474;2022-12-29T08:56:00;13.80;71.50
45785;DHT22;31489;51.404;5.474;2022-12-29T08:58:27;13.80;71.40
45785;DHT22;31489;51.404;5.474;2022-12-29T09:00:54;13.80;71.40
45785;DHT22;31489;51.404;5.474;2022-12-29T09:03:20;13.80;71.00
45785;DHT22;31489;51.404;5.474;2022-12-29T09:05:50;13.80;70.90
45785;DHT22;31489;51.404;5.474;2022-12-29T09:08:16;13.80;69.70
45785;DHT22;31489;51.404;5.474;2022-12-29T09:10:42;13.90;70.90
45785;DHT22;31489;51.404;5.474;2022-12-29T09:13:09;13.90;70.40
45785;DHT22;31489;51.404;5.474;2022-12-29T09:15:35;13.90;70.90
45785;DHT22;31489;51.404;5.474;2022-12-29T09:18:00;13.90;71.00
45785;DHT22;31489;51.404;5.474;2022-12-29T09:20:26;13.90;71.20
45785;DHT22;31489;51.404;5.474;2022-12-29T09:22:52;14.00;71.30
45785;DHT22;31489;51.404;5.474;2022-12-29T09:25:17;14.00;71.10
45785;DHT22;31489;51.404;5.474;2022-12-29T09:27:43;14.10;70.70
45785;DHT22;31489;51.404;5.474;2022-12-29T09:30:11;14.00;70.70
45785;DHT22;31489;51.404;5.474;2022-12-29T09:32:37;14.00;70.40
45785;DHT22;31489;51.404;5.474;2022-12-29T09:35:03;14.10;71.10
45785;DHT22;31489;51.404;5.474;2022-12-29T09:37:29;14.00;71.30
45785;DHT22;31489;51.404;5.474;2022-12-29T09:39:55;14.10;71.30
45785;DHT22;31489;51.404;5.474;2022-12-29T09:47:30;13.90;71.40
45785;DHT22;31489;51.404;5.474;2022-12-29T09:50:04;13.80;71.60
45785;DHT22;31489;51.404;5.474;2022-12-29T09:52:45;13.80;71.90
45785;DHT22;31489;51.404;5.474;2022-12-29T09:55:14;13.70;72.40
45785;DHT22;31489;51.404;5.474;2022-12-29T09:57:56;13.60;72.30
45785;DHT22;31489;51.404;5.474;2022-12-29T10:00:38;13.50;72.10
45785;DHT22;31489;51.404;5.474;2022-12-29T10:03:14;13.40;72.30
45785;DHT22;31489;51.404;5.474;2022-12-29T10:06:08;13.40;73.30
45785;DHT22;31489;51.404;5.474;2022-12-29T10:14:10;13.20;73.60
45785;DHT22;31489;51.404;5.474;2022-12-29T10:24:32;13.00;75.60
45785;DHT22;31489;51.404;5.474;2022-12-29T10:26:59;12.90;75.70
45785;DHT22;31489;51.404;5.474;2022-12-29T10:29:33;12.90;76.10
45785;DHT22;31489;51.404;5.474;2022-12-29T10:32:04;12.80;75.70
45785;DHT22;31489;51.404;5.474;2022-12-29T10:34:34;12.80;76.10
45785;DHT22;31489;51.404;5.474;2022-12-29T10:39:52;12.70;76.10
45785;DHT22;31489;51.404;5.474;2022-12-29T10:42:37;12.70;76.40
45785;DHT22;31489;51.404;5.474;2022-12-29T10:45:08;12.70;76.50
45785;DHT22;31489;51.404;5.474;2022-12-29T10:47:42;12.60;76.80
45785;DHT22;31489;51.404;5.474;2022-12-29T10:50:12;12.60;77.00
45785;DHT22;31489;51.404;5.474;2022-12-29T10:52:39;12.60;77.10
45785;DHT22;31489;51.404;5.474;2022-12-29T10:55:12;12.60;77.60
45785;DHT22;31489;51.404;5.474;2022-12-29T10:57:42;12.60;77.40
45785;DHT22;31489;51.404;5.474;2022-12-29T11:00:18;12.60;77.10
45785;DHT22;31489;51.404;5.474;2022-12-29T11:03:08;12.60;77.00
45785;DHT22;31489;51.404;5.474;2022-12-29T11:09:10;12.60;76.80
45785;DHT22;31489;51.404;5.474;2022-12-29T11:11:37;12.60;77.10
45785;DHT22;31489;51.404;5.474;2022-12-29T11:14:30;12.60;77.50
45785;DHT22;31489;51.404;5.474;2022-12-29T11:17:01;12.70;77.80
45785;DHT22;31489;51.404;5.474;2022-12-29T11:19:29;12.70;77.10
45785;DHT22;31489;51.404;5.474;2022-12-29T11:22:20;12.80;77.30
45785;DHT22;31489;51.404;5.474;2022-12-29T11:24:48;12.90;76.50
45785;DHT22;31489;51.404;5.474;2022-12-29T11:29:43;13.00;78.00
45785;DHT22;31489;51.404;5.474;2022-12-29T11:32:23;13.10;77.20
45785;DHT22;31489;51.404;5.474;2022-12-29T11:34:50;13.20;76.60
45785;DHT22;31489;51.404;5.474;2022-12-29T11:37:36;13.30;77.30
45785;DHT22;31489;51.404;5.474;2022-12-29T11:40:24;13.40;76.90
45785;DHT22;31489;51.404;5.474;2022-12-29T11:43:03;13.50;76.50
45785;DHT22;31489;51.404;5.474;2022-12-29T11:45:36;13.50;75.30
45785;DHT22;31489;51.404;5.474;2022-12-29T11:48:14;13.60;76.30
45785;DHT22;31489;51.404;5.474;2022-12-29T11:50:43;13.60;75.30
45785;DHT22;31489;51.404;5.474;2022-12-29T11:55:57;13.60;74.90
45785;DHT22;31489;51.404;5.474;2022-12-29T11:58:31;13.60;74.70
45785;DHT22;31489;51.404;5.474;2022-12-29T12:01:02;13.70;75.70
45785;DHT22;31489;51.404;5.474;2022-12-29T12:03:30;13.60;75.10
45785;DHT22;31489;51.404;5.474;2022-12-29T12:06:01;13.70;75.10
45785;DHT22;31489;51.404;5.474;2022-12-29T12:11:39;13.80;74.30
45785;DHT22;31489;51.404;5.474;2022-12-29T12:14:20;13.80;73.90
45785;DHT22;31489;51.404;5.474;2022-12-29T12:16:50;13.80;73.80
45785;DHT22;31489;51.404;5.474;2022-12-29T12:19:29;13.80;73.90
45785;DHT22;31489;51.404;5.474;2022-12-29T12:22:07;13.90;73.70
45785;DHT22;31489;51.404;5.474;2022-12-29T12:24:41;13.90;72.50
45785;DHT22;31489;51.404;5.474;2022-12-29T12:29:52;13.90;72.10
45785;DHT22;31489;51.404;5.474;2022-12-29T12:38:00;14.00;71.80
45785;DHT22;31489;51.404;5.474;2022-12-29T12:46:37;14.00;71.90
45785;DHT22;31489;51.404;5.474;2022-12-29T12:52:08;14.00;71.20
45785;DHT22;31489;51.404;5.474;2022-12-29T12:59:56;14.00;72.30
45785;DHT22;31489;51.404;5.474;2022-12-29T13:16:21;13.80;72.20
45785;DHT22;31489;51.404;5.474;2022-12-29T13:18:58;13.80;72.90
45785;DHT22;31489;51.404;5.474;2022-12-29T13:24:45;13.80;72.80
45785;DHT22;31489;51.404;5.474;2022-12-29T13:38:03;13.40;75.20
45785;DHT22;31489;51.404;5.474;2022-12-29T13:40:34;13.20;75.90
45785;DHT22;31489;51.404;5.474;2022-12-29T13:43:03;13.10;76.20
45785;DHT22;31489;51.404;5.474;2022-12-29T13:45:31;13.00;76.50
45785;DHT22;31489;51.404;5.474;2022-12-29T13:50:39;12.80;77.60
45785;DHT22;31489;51.404;5.474;2022-12-29T13:53:33;12.70;77.60
45785;DHT22;31489;51.404;5.474;2022-12-29T13:56:06;12.70;78.60
45785;DHT22;31489;51.404;5.474;2022-12-29T13:59:04;12.60;78.60
45785;DHT22;31489;51.404;5.474;2022-12-29T14:01:39;12.50;79.00
45785;DHT22;31489;51.404;5.474;2022-12-29T14:04:13;12.50;79.50
45785;DHT22;31489;51.404;5.474;2022-12-29T14:06:40;12.50;79.90
45785;DHT22;31489;51.404;5.474;2022-12-29T14:09:34;12.40;80.00
45785;DHT22;31489;51.404;5.474;2022-12-29T14:12:22;12.40;80.50
45785;DHT22;31489;51.404;5.474;2022-12-29T14:14:50;12.40;80.30
45785;DHT22;31489;51.404;5.474;2022-12-29T14:17:20;12.40;80.00
45785;DHT22;31489;51.404;5.474;2022-12-29T14:19:47;12.40;80.00
45785;DHT22;31489;51.404;5.474;2022-12-29T14:22:24;12.40;79.90
45785;DHT22;31489;51.404;5.474;2022-12-29T14:24:50;12.40;79.70
45785;DHT22;31489;51.404;5.474;2022-12-29T14:29:44;12.40;79.70
45785;DHT22;31489;51.404;5.474;2022-12-29T14:34:59;12.40;79.60
45785;DHT22;31489;51.404;5.474;2022-12-29T14:37:33;12.40;79.40
45785;DHT22;31489;51.404;5.474;2022-12-29T14:42:32;12.50;78.80
45785;DHT22;31489;51.404;5.474;2022-12-29T14:47:44;12.50;78.80
45785;DHT22;31489;51.404;5.474;2022-12-29T14:57:47;12.40;78.60
45785;DHT22;31489;51.404;5.474;2022-12-29T15:02:54;12.40;78.90
45785;DHT22;31489;51.404;5.474;2022-12-29T15:05:41;12.30;78.60
45785;DHT22;31489;51.404;5.474;2022-12-29T15:08:08;12.40;78.60
45785;DHT22;31489;51.404;5.474;2022-12-29T15:10:49;12.30;78.60
45785;DHT22;31489;51.404;5.474;2022-12-29T15:13:22;12.30;78.60
45785;DHT22;31489;51.404;5.474;2022-12-29T15:15:50;12.30;78.70
45785;DHT22;31489;51.404;5.474;2022-12-29T15:18:31;12.30;78.60
45785;DHT22;31489;51.404;5.474;2022-12-29T15:21:06;12.30;78.60
45785;DHT22;31489;51.404;5.474;2022-12-29T15:23:33;12.20;78.70
45785;DHT22;31489;51.404;5.474;2022-12-29T15:26:05;12.30;78.80
45785;DHT22;31489;51.404;5.474;2022-12-29T15:31:05;12.20;78.50
45785;DHT22;31489;51.404;5.474;2022-12-29T15:33:38;12.20;78.80
45785;DHT22;31489;51.404;5.474;2022-12-29T15:36:11;12.10;78.60
45785;DHT22;31489;51.404;5.474;2022-12-29T15:38:38;12.10;78.70
45785;DHT22;31489;51.404;5.474;2022-12-29T15:41:26;12.10;78.60
45785;DHT22;31489;51.404;5.474;2022-12-29T15:44:12;12.10;78.50
45785;DHT22;31489;51.404;5.474;2022-12-29T15:46:40;12.00;78.10
45785;DHT22;31489;51.404;5.474;2022-12-29T15:49:07;12.00;78.10
45785;DHT22;31489;51.404;5.474;2022-12-29T15:51:37;12.00;78.30
45785;DHT22;31489;51.404;5.474;2022-12-29T15:54:04;11.90;78.00
45785;DHT22;31489;51.404;5.474;2022-12-29T15:56:31;11.80;78.20
45785;DHT22;31489;51.404;5.474;2022-12-29T15:58:58;11.80;78.30
45785;DHT22;31489;51.404;5.474;2022-12-29T16:03:54;11.70;77.80
45785;DHT22;31489;51.404;5.474;2022-12-29T16:09:07;11.60;77.70
45785;DHT22;31489;51.404;5.474;2022-12-29T16:11:41;11.60;77.40
45785;DHT22;31489;51.404;5.474;2022-12-29T16:14:20;11.60;77.40
45785;DHT22;31489;51.404;5.474;2022-12-29T16:16:47;11.60;77.20
45785;DHT22;31489;51.404;5.474;2022-12-29T16:19:36;11.50;77.30
45785;DHT22;31489;51.404;5.474;2022-12-29T16:22:27;11.50;76.80
45785;DHT22;31489;51.404;5.474;2022-12-29T16:24:50;11.40;77.20
45785;DHT22;31489;51.404;5.474;2022-12-29T16:29:41;11.40;77.20
45785;DHT22;31489;51.404;5.474;2022-12-29T16:32:26;11.40;77.30
45785;DHT22;31489;51.404;5.474;2022-12-29T16:35:18;11.40;76.40
45785;DHT22;31489;51.404;5.474;2022-12-29T16:37:45;11.40;76.80
45785;DHT22;31489;51.404;5.474;2022-12-29T16:50:30;11.30;76.30
45785;DHT22;31489;51.404;5.474;2022-12-29T16:52:56;11.30;76.80
45785;DHT22;31489;51.404;5.474;2022-12-29T16:55:22;11.30;76.80
45785;DHT22;31489;51.404;5.474;2022-12-29T16:57:49;11.30;76.70
45785;DHT22;31489;51.404;5.474;2022-12-29T17:00:21;11.30;76.60
45785;DHT22;31489;51.404;5.474;2022-12-29T17:02:54;11.30;76.40
45785;DHT22;31489;51.404;5.474;2022-12-29T17:05:21;11.30;76.10
45785;DHT22;31489;51.404;5.474;2022-12-29T17:07:47;11.30;76.40
45785;DHT22;31489;51.404;5.474;2022-12-29T17:10:13;11.30;76.40
45785;DHT22;31489;51.404;5.474;2022-12-29T17:12:41;11.30;76.20
45785;DHT22;31489;51.404;5.474;2022-12-29T17:15:15;11.30;76.20
45785;DHT22;31489;51.404;5.474;2022-12-29T17:17:45;11.30;75.60
45785;DHT22;31489;51.404;5.474;2022-12-29T17:20:30;11.20;75.80
45785;DHT22;31489;51.404;5.474;2022-12-29T17:22:57;11.30;75.40
45785;DHT22;31489;51.404;5.474;2022-12-29T17:25:34;11.20;76.00
45785;DHT22;31489;51.404;5.474;2022-12-29T17:30:32;11.20;75.90
45785;DHT22;31489;51.404;5.474;2022-12-29T17:33:01;11.20;76.10
45785;DHT22;31489;51.404;5.474;2022-12-29T17:35:28;11.20;76.20
45785;DHT22;31489;51.404;5.474;2022-12-29T17:37:54;11.20;76.10
45785;DHT22;31489;51.404;5.474;2022-12-29T17:40:23;11.20;76.20
45785;DHT22;31489;51.404;5.474;2022-12-29T17:42:51;11.20;76.10
45785;DHT22;31489;51.404;5.474;2022-12-29T17:45:24;11.20;76.10
45785;DHT22;31489;51.404;5.474;2022-12-29T17:47:50;11.10;76.10
45785;DHT22;31489;51.404;5.474;2022-12-29T17:50:18;11.10;76.20
45785;DHT22;31489;51.404;5.474;2022-12-29T17:52:56;11.10;76.30
45785;DHT22;31489;51.404;5.474;2022-12-29T17:55:23;11.10;76.10
45785;DHT22;31489;51.404;5.474;2022-12-29T17:57:50;11.10;76.20
45785;DHT22;31489;51.404;5.474;2022-12-29T18:00:22;11.10;76.30
45785;DHT22;31489;51.404;5.474;2022-12-29T18:02:48;11.10;76.30
45785;DHT22;31489;51.404;5.474;2022-12-29T18:05:25;11.10;76.40
45785;DHT22;31489;51.404;5.474;2022-12-29T18:07:54;11.10;76.00
45785;DHT22;31489;51.404;5.474;2022-12-29T18:10:22;11.00;76.20
45785;DHT22;31489;51.404;5.474;2022-12-29T18:12:50;11.00;76.10
45785;DHT22;31489;51.404;5.474;2022-12-29T18:15:24;11.00;76.20
45785;DHT22;31489;51.404;5.474;2022-12-29T18:18:05;11.00;76.10
45785;DHT22;31489;51.404;5.474;2022-12-29T18:20:31;11.00;76.10
45785;DHT22;31489;51.404;5.474;2022-12-29T18:22:57;11.00;76.70
45785;DHT22;31489;51.404;5.474;2022-12-29T18:25:43;11.00;76.80
45785;DHT22;31489;51.404;5.474;2022-12-29T18:28:11;11.00;76.40
45785;DHT22;31489;51.404;5.474;2022-12-29T18:30:37;11.00;76.90
45785;DHT22;31489;51.404;5.474;2022-12-29T18:33:03;11.00;76.90
45785;DHT22;31489;51.404;5.474;2022-12-29T18:35:38;10.90;77.00
45785;DHT22;31489;51.404;5.474;2022-12-29T18:38:05;10.90;76.80